RYR6PY EDDS-EPWA
Flight info
| Callsign | RYR6PY |
|---|---|
| Flight time | 1h 22m |
| Altitude | 23000 |
| Route | DKB9B/25 DKB N869 AMOSA/N0452F350 N869 ANELA Z715 KULOK L984 OKG DCT BALTU DCT LEGAZ DCT LAGAR DCT OKENO Q277 AGAVA |
| Aircraft | B738/M-SDE2E3FGHIRWXY/LB1 |
Departure
| Time | 2026-05-06 18:30 |
|---|---|
| Airport | Stuttgart Airport (EDDS) |
Arrival
| Time | 2026-05-06 19:52 |
|---|---|
| Airport | Warsaw Chopin Airport (EPWA) |
| Time | Latitude | Longitude | Altitude | Speed | Heading |
|---|---|---|---|---|---|
| 2026-05-06 18:06 | 48.68908 | 9.20026 | 1284 ft | 0 kts | 164° |
| 2026-05-06 18:20 | 48.68904 | 9.20028 | 1288 ft | 2 kts | 164° |
| 2026-05-06 18:20 | 48.68880 | 9.20038 | 1287 ft | 5 kts | 164° |
| 2026-05-06 18:20 | 48.68852 | 9.20088 | 1289 ft | 8 kts | 97° |
| 2026-05-06 18:20 | 48.68866 | 9.20189 | 1287 ft | 12 kts | 73° |
| 2026-05-06 18:21 | 48.68891 | 9.20322 | 1286 ft | 15 kts | 75° |
| 2026-05-06 18:21 | 48.68922 | 9.20482 | 1287 ft | 17 kts | 75° |
| 2026-05-06 18:21 | 48.68957 | 9.20670 | 1286 ft | 20 kts | 74° |
| 2026-05-06 18:21 | 48.68997 | 9.20879 | 1286 ft | 21 kts | 74° |
| 2026-05-06 18:22 | 48.69039 | 9.21104 | 1287 ft | 23 kts | 74° |
| 2026-05-06 18:22 | 48.69084 | 9.21338 | 1286 ft | 23 kts | 74° |
| 2026-05-06 18:22 | 48.69128 | 9.21565 | 1286 ft | 22 kts | 74° |
| 2026-05-06 18:22 | 48.69170 | 9.21791 | 1286 ft | 23 kts | 74° |
| 2026-05-06 18:23 | 48.69217 | 9.22038 | 1284 ft | 26 kts | 74° |
| 2026-05-06 18:23 | 48.69265 | 9.22293 | 1286 ft | 24 kts | 73° |
| 2026-05-06 18:23 | 48.69310 | 9.22530 | 1289 ft | 23 kts | 74° |
| 2026-05-06 18:23 | 48.69354 | 9.22758 | 1287 ft | 22 kts | 74° |
| 2026-05-06 18:24 | 48.69382 | 9.22905 | 1288 ft | 22 kts | 74° |
| 2026-05-06 18:24 | 48.69423 | 9.23123 | 1289 ft | 21 kts | 74° |
| 2026-05-06 18:24 | 48.69465 | 9.23343 | 1284 ft | 23 kts | 73° |
| 2026-05-06 18:24 | 48.69512 | 9.23597 | 1286 ft | 27 kts | 74° |
| 2026-05-06 18:25 | 48.69567 | 9.23883 | 1288 ft | 29 kts | 73° |
| 2026-05-06 18:25 | 48.69604 | 9.24074 | 1286 ft | 13 kts | 74° |
| 2026-05-06 18:25 | 48.69593 | 9.24200 | 1286 ft | 12 kts | 115° |
| 2026-05-06 18:25 | 48.69543 | 9.24294 | 1286 ft | 10 kts | 156° |
| 2026-05-06 18:26 | 48.69502 | 9.24312 | 1287 ft | 2 kts | 164° |
| 2026-05-06 18:26 | 48.69497 | 9.24314 | 1284 ft | 0 kts | 164° |
| 2026-05-06 18:27 | 48.69488 | 9.24318 | 1284 ft | 5 kts | 165° |
| 2026-05-06 18:28 | 48.69430 | 9.24320 | 1284 ft | 11 kts | 193° |
| 2026-05-06 18:28 | 48.69382 | 9.24266 | 1284 ft | 4 kts | 242° |
| 2026-05-06 18:28 | 48.69377 | 9.24243 | 1284 ft | 0 kts | 255° |
| 2026-05-06 18:29 | 48.69374 | 9.24228 | 1286 ft | 8 kts | 255° |
| 2026-05-06 18:29 | 48.69275 | 9.23705 | 1286 ft | 95 kts | 253° |
| 2026-05-06 18:29 | 48.69029 | 9.22375 | 1358 ft | 160 kts | 253° |
| 2026-05-06 18:30 | 48.68694 | 9.20608 | 2011 ft | 186 kts | 253° |
| 2026-05-06 18:30 | 48.68310 | 9.18736 | 3227 ft | 175 kts | 253° |
| 2026-05-06 18:30 | 48.67956 | 9.16873 | 4024 ft | 194 kts | 252° |
| 2026-05-06 18:30 | 48.67551 | 9.14770 | 4277 ft | 222 kts | 252° |
| 2026-05-06 18:31 | 48.67094 | 9.12462 | 4791 ft | 233 kts | 253° |
| 2026-05-06 18:31 | 48.66986 | 9.10019 | 5421 ft | 242 kts | 282° |
| 2026-05-06 18:31 | 48.67748 | 9.07748 | 6273 ft | 248 kts | 311° |
| 2026-05-06 18:31 | 48.69195 | 9.06267 | 7028 ft | 264 kts | 338° |
| 2026-05-06 18:32 | 48.71018 | 9.05462 | 7648 ft | 280 kts | 342° |
| 2026-05-06 18:32 | 48.72913 | 9.04614 | 8488 ft | 286 kts | 341° |
| 2026-05-06 18:32 | 48.74847 | 9.03897 | 9431 ft | 290 kts | 357° |
| 2026-05-06 18:32 | 48.76839 | 9.04420 | 10181 ft | 298 kts | 24° |
| 2026-05-06 18:33 | 48.78551 | 9.06345 | 10484 ft | 322 kts | 51° |
| 2026-05-06 18:33 | 48.79914 | 9.09160 | 10983 ft | 336 kts | 56° |
| 2026-05-06 18:33 | 48.81246 | 9.12106 | 11770 ft | 341 kts | 57° |
| 2026-05-06 18:33 | 48.82589 | 9.15096 | 12569 ft | 345 kts | 57° |
| 2026-05-06 18:34 | 48.83958 | 9.18113 | 13397 ft | 349 kts | 56° |
| 2026-05-06 18:34 | 48.85338 | 9.21126 | 14116 ft | 354 kts | 56° |
| 2026-05-06 18:34 | 48.86757 | 9.24202 | 14745 ft | 361 kts | 56° |
| 2026-05-06 18:34 | 48.88213 | 9.27348 | 15428 ft | 366 kts | 56° |
| 2026-05-06 18:35 | 48.89679 | 9.30521 | 16189 ft | 367 kts | 56° |
| 2026-05-06 18:35 | 48.91147 | 9.33723 | 16897 ft | 371 kts | 58° |
| 2026-05-06 18:35 | 48.92325 | 9.37218 | 17553 ft | 374 kts | 69° |
| 2026-05-06 18:35 | 48.93286 | 9.40924 | 18215 ft | 379 kts | 71° |
| 2026-05-06 18:36 | 48.94209 | 9.44685 | 18832 ft | 381 kts | 72° |
| 2026-05-06 18:36 | 48.95143 | 9.48491 | 19440 ft | 385 kts | 71° |
| 2026-05-06 18:36 | 48.96099 | 9.52329 | 20037 ft | 389 kts | 71° |
| 2026-05-06 18:36 | 48.97070 | 9.56179 | 20657 ft | 391 kts | 71° |
| 2026-05-06 18:37 | 48.98047 | 9.60017 | 21249 ft | 395 kts | 71° |
| 2026-05-06 18:37 | 48.99049 | 9.63925 | 21824 ft | 398 kts | 71° |
| 2026-05-06 18:37 | 49.00062 | 9.67874 | 22383 ft | 402 kts | 71° |
| 2026-05-06 18:37 | 49.01085 | 9.71857 | 22934 ft | 406 kts | 71° |
| 2026-05-06 18:38 | 49.02119 | 9.75881 | 23403 ft | 411 kts | 71° |
| 2026-05-06 18:38 | 49.03163 | 9.79965 | 23845 ft | 415 kts | 71° |
| 2026-05-06 18:38 | 49.04216 | 9.84085 | 24317 ft | 418 kts | 71° |
| 2026-05-06 18:38 | 49.05273 | 9.88229 | 24765 ft | 421 kts | 72° |
| 2026-05-06 18:39 | 49.06338 | 9.92410 | 25207 ft | 424 kts | 72° |
| 2026-05-06 18:39 | 49.07407 | 9.96617 | 25636 ft | 428 kts | 72° |
| 2026-05-06 18:39 | 49.08487 | 10.00874 | 26064 ft | 431 kts | 72° |
| 2026-05-06 18:40 | 49.10662 | 10.09472 | 26947 ft | 437 kts | 72° |
| 2026-05-06 18:40 | 49.11758 | 10.13815 | 27385 ft | 440 kts | 72° |
| 2026-05-06 18:40 | 49.12860 | 10.18194 | 27805 ft | 443 kts | 72° |
| 2026-05-06 18:40 | 49.14009 | 10.22579 | 28143 ft | 448 kts | 67° |
| 2026-05-06 18:41 | 49.15791 | 10.26548 | 28363 ft | 461 kts | 47° |
| 2026-05-06 18:41 | 49.18097 | 10.29967 | 28821 ft | 462 kts | 45° |
| 2026-05-06 18:41 | 49.20418 | 10.33381 | 29222 ft | 466 kts | 46° |
| 2026-05-06 18:41 | 49.22740 | 10.36914 | 29105 ft | 470 kts | 47° |
| 2026-05-06 18:42 | 49.24992 | 10.40403 | 29094 ft | 464 kts | 47° |
| 2026-05-06 18:42 | 49.29526 | 10.47347 | 29099 ft | 461 kts | 46° |
| 2026-05-06 18:43 | 49.34108 | 10.54336 | 29094 ft | 466 kts | 46° |
| 2026-05-06 18:43 | 49.38607 | 10.61542 | 29095 ft | 466 kts | 49° |
| 2026-05-06 18:44 | 49.43024 | 10.68723 | 29068 ft | 460 kts | 47° |
| 2026-05-06 18:44 | 49.47545 | 10.75778 | 29032 ft | 465 kts | 46° |
| 2026-05-06 18:45 | 49.52064 | 10.82896 | 29035 ft | 465 kts | 46° |
| 2026-05-06 18:45 | 49.56590 | 10.90074 | 29130 ft | 472 kts | 46° |
| 2026-05-06 18:45 | 49.58883 | 10.93716 | 29462 ft | 475 kts | 46° |
| 2026-05-06 18:46 | 49.61129 | 10.97338 | 29967 ft | 471 kts | 47° |
| 2026-05-06 18:46 | 49.63426 | 11.00992 | 30166 ft | 477 kts | 46° |
| 2026-05-06 18:46 | 49.65763 | 11.04681 | 30368 ft | 482 kts | 46° |
| 2026-05-06 18:46 | 49.68108 | 11.08404 | 30703 ft | 483 kts | 46° |
| 2026-05-06 18:47 | 49.70440 | 11.12132 | 31086 ft | 483 kts | 46° |
| 2026-05-06 18:47 | 49.72731 | 11.15942 | 31413 ft | 484 kts | 52° |
| 2026-05-06 18:47 | 49.74629 | 11.20223 | 31736 ft | 483 kts | 63° |
| 2026-05-06 18:47 | 49.76041 | 11.24919 | 32109 ft | 480 kts | 70° |
| 2026-05-06 18:48 | 49.77304 | 11.29701 | 32419 ft | 481 kts | 70° |
| 2026-05-06 18:48 | 49.78573 | 11.34497 | 32778 ft | 481 kts | 70° |
| 2026-05-06 18:48 | 49.79853 | 11.39297 | 33110 ft | 482 kts | 70° |
| 2026-05-06 18:48 | 49.81143 | 11.44093 | 33458 ft | 483 kts | 69° |
| 2026-05-06 18:49 | 49.82443 | 11.48894 | 33802 ft | 482 kts | 69° |
| 2026-05-06 18:49 | 49.83740 | 11.53678 | 34117 ft | 482 kts | 69° |
| 2026-05-06 18:49 | 49.85039 | 11.58459 | 34467 ft | 480 kts | 69° |
| 2026-05-06 18:49 | 49.86312 | 11.63147 | 34769 ft | 480 kts | 69° |
| 2026-05-06 18:50 | 49.87614 | 11.67957 | 34743 ft | 486 kts | 69° |
| 2026-05-06 18:50 | 49.90218 | 11.77604 | 34744 ft | 481 kts | 69° |
| 2026-05-06 18:51 | 49.92775 | 11.87117 | 34763 ft | 476 kts | 70° |
| 2026-05-06 18:51 | 49.95319 | 11.96632 | 34761 ft | 477 kts | 70° |
| 2026-05-06 18:52 | 49.97843 | 12.06112 | 34763 ft | 478 kts | 70° |
| 2026-05-06 18:52 | 50.00383 | 12.15693 | 34763 ft | 478 kts | 70° |
| 2026-05-06 18:53 | 50.02895 | 12.25207 | 34749 ft | 472 kts | 70° |
| 2026-05-06 18:53 | 50.05375 | 12.34640 | 34760 ft | 471 kts | 70° |
| 2026-05-06 18:54 | 50.07845 | 12.44083 | 34745 ft | 470 kts | 70° |
| 2026-05-06 18:54 | 50.10314 | 12.53541 | 34757 ft | 471 kts | 70° |
| 2026-05-06 18:55 | 50.12759 | 12.62959 | 34772 ft | 472 kts | 70° |
| 2026-05-06 18:55 | 50.15222 | 12.72482 | 34769 ft | 474 kts | 70° |
| 2026-05-06 18:56 | 50.17675 | 12.82001 | 34790 ft | 475 kts | 70° |
| 2026-05-06 18:56 | 50.20137 | 12.91595 | 34786 ft | 477 kts | 70° |
| 2026-05-06 18:57 | 50.22578 | 13.01190 | 34769 ft | 476 kts | 70° |
| 2026-05-06 18:57 | 50.24977 | 13.10923 | 34762 ft | 482 kts | 71° |
| 2026-05-06 18:58 | 50.27449 | 13.20620 | 34746 ft | 480 kts | 71° |
| 2026-05-06 18:58 | 50.29923 | 13.30291 | 34750 ft | 478 kts | 71° |
| 2026-05-06 18:59 | 50.32390 | 13.39929 | 34768 ft | 476 kts | 70° |
| 2026-05-06 18:59 | 50.34824 | 13.49518 | 34755 ft | 474 kts | 71° |
| 2026-05-06 19:00 | 50.37182 | 13.59148 | 34756 ft | 473 kts | 71° |
| 2026-05-06 19:00 | 50.39552 | 13.68767 | 34761 ft | 472 kts | 71° |
| 2026-05-06 19:01 | 50.41905 | 13.78312 | 34759 ft | 472 kts | 71° |
| 2026-05-06 19:01 | 50.44271 | 13.87929 | 34766 ft | 473 kts | 71° |
| 2026-05-06 19:02 | 50.46631 | 13.97568 | 34766 ft | 473 kts | 72° |
| 2026-05-06 19:02 | 50.48996 | 14.07189 | 34775 ft | 473 kts | 71° |
| 2026-05-06 19:03 | 50.51324 | 14.16898 | 34771 ft | 476 kts | 72° |
| 2026-05-06 19:03 | 50.53679 | 14.26648 | 34776 ft | 477 kts | 71° |
| 2026-05-06 19:04 | 50.56030 | 14.36415 | 34773 ft | 478 kts | 72° |
| 2026-05-06 19:04 | 50.58361 | 14.46156 | 34776 ft | 479 kts | 72° |
| 2026-05-06 19:05 | 50.60701 | 14.55988 | 34763 ft | 479 kts | 72° |
| 2026-05-06 19:05 | 50.63032 | 14.65816 | 34759 ft | 479 kts | 72° |
| 2026-05-06 19:06 | 50.65352 | 14.75648 | 34776 ft | 479 kts | 72° |
| 2026-05-06 19:06 | 50.67668 | 14.85513 | 34772 ft | 480 kts | 72° |
| 2026-05-06 19:07 | 50.69978 | 14.95387 | 34767 ft | 480 kts | 72° |
| 2026-05-06 19:07 | 50.72282 | 15.05273 | 34764 ft | 479 kts | 72° |
| 2026-05-06 19:08 | 50.74552 | 15.15078 | 34744 ft | 478 kts | 72° |
| 2026-05-06 19:08 | 50.76823 | 15.24925 | 34757 ft | 477 kts | 72° |
| 2026-05-06 19:09 | 50.79094 | 15.34752 | 34776 ft | 474 kts | 73° |
| 2026-05-06 19:09 | 50.81399 | 15.44523 | 34783 ft | 475 kts | 71° |
| 2026-05-06 19:10 | 50.83850 | 15.54234 | 34776 ft | 476 kts | 70° |
| 2026-05-06 19:10 | 50.85872 | 15.62346 | 34785 ft | 476 kts | 71° |
| 2026-05-06 19:11 | 50.88297 | 15.72112 | 34759 ft | 477 kts | 71° |
| 2026-05-06 19:11 | 50.90705 | 15.81905 | 34783 ft | 478 kts | 71° |
| 2026-05-06 19:12 | 50.93105 | 15.91754 | 34782 ft | 479 kts | 71° |
| 2026-05-06 19:12 | 50.95503 | 16.01627 | 34793 ft | 480 kts | 71° |
| 2026-05-06 19:13 | 50.97899 | 16.11527 | 34791 ft | 481 kts | 71° |
| 2026-05-06 19:13 | 51.00265 | 16.21420 | 34790 ft | 483 kts | 71° |
| 2026-05-06 19:14 | 51.02648 | 16.31385 | 34761 ft | 481 kts | 71° |
| 2026-05-06 19:14 | 51.05015 | 16.41321 | 34769 ft | 480 kts | 71° |
| 2026-05-06 19:15 | 51.07298 | 16.51300 | 34707 ft | 479 kts | 73° |
| 2026-05-06 19:15 | 51.08368 | 16.56299 | 34432 ft | 475 kts | 73° |
| 2026-05-06 19:15 | 51.09407 | 16.61270 | 34190 ft | 470 kts | 74° |
| 2026-05-06 19:15 | 51.10430 | 16.66193 | 33959 ft | 466 kts | 74° |
| 2026-05-06 19:16 | 51.11446 | 16.71076 | 33715 ft | 464 kts | 74° |
| 2026-05-06 19:16 | 51.12446 | 16.75922 | 33428 ft | 459 kts | 75° |
| 2026-05-06 19:16 | 51.13435 | 16.80763 | 33136 ft | 460 kts | 73° |
| 2026-05-06 19:16 | 51.14454 | 16.85565 | 32875 ft | 456 kts | 72° |
| 2026-05-06 19:17 | 51.15472 | 16.90332 | 32550 ft | 454 kts | 73° |
| 2026-05-06 19:17 | 51.16461 | 16.95028 | 32286 ft | 453 kts | 74° |
| 2026-05-06 19:17 | 51.17448 | 16.99787 | 32030 ft | 452 kts | 74° |
| 2026-05-06 19:17 | 51.18437 | 17.04544 | 31774 ft | 450 kts | 75° |
| 2026-05-06 19:18 | 51.19407 | 17.09268 | 31506 ft | 449 kts | 74° |
| 2026-05-06 19:18 | 51.20415 | 17.13985 | 31249 ft | 447 kts | 74° |
| 2026-05-06 19:18 | 51.21396 | 17.18672 | 30800 ft | 444 kts | 75° |
| 2026-05-06 19:18 | 51.22360 | 17.23350 | 30359 ft | 441 kts | 75° |
| 2026-05-06 19:19 | 51.23308 | 17.27988 | 29921 ft | 438 kts | 75° |
| 2026-05-06 19:19 | 51.24240 | 17.32546 | 29445 ft | 435 kts | 75° |
| 2026-05-06 19:19 | 51.25178 | 17.37137 | 28942 ft | 432 kts | 75° |
| 2026-05-06 19:19 | 51.26120 | 17.41770 | 28455 ft | 449 kts | 75° |
| 2026-05-06 19:20 | 51.27101 | 17.46629 | 27997 ft | 470 kts | 75° |
| 2026-05-06 19:20 | 51.28121 | 17.51670 | 27524 ft | 484 kts | 75° |
| 2026-05-06 19:20 | 51.29165 | 17.56833 | 27055 ft | 490 kts | 75° |
| 2026-05-06 19:20 | 51.30212 | 17.61996 | 26583 ft | 487 kts | 75° |
| 2026-05-06 19:21 | 51.31252 | 17.67124 | 26112 ft | 482 kts | 75° |
| 2026-05-06 19:21 | 51.32281 | 17.72209 | 25646 ft | 479 kts | 75° |
| 2026-05-06 19:21 | 51.33300 | 17.77273 | 25207 ft | 477 kts | 75° |
| 2026-05-06 19:21 | 51.34312 | 17.82319 | 24769 ft | 474 kts | 75° |
| 2026-05-06 19:22 | 51.35315 | 17.87334 | 24337 ft | 471 kts | 75° |
| 2026-05-06 19:22 | 51.36307 | 17.92313 | 23911 ft | 469 kts | 75° |
| 2026-05-06 19:22 | 51.37293 | 17.97277 | 23494 ft | 466 kts | 75° |
| 2026-05-06 19:22 | 51.38260 | 18.02154 | 23013 ft | 464 kts | 74° |
| 2026-05-06 19:23 | 51.39232 | 18.07066 | 22517 ft | 461 kts | 75° |
| 2026-05-06 19:23 | 51.40195 | 18.11947 | 22047 ft | 458 kts | 75° |
| 2026-05-06 19:23 | 51.41148 | 18.16797 | 21573 ft | 455 kts | 75° |
| 2026-05-06 19:23 | 51.42094 | 18.21616 | 21130 ft | 450 kts | 75° |
| 2026-05-06 19:24 | 51.43027 | 18.26377 | 20886 ft | 446 kts | 75° |
| 2026-05-06 19:24 | 51.43951 | 18.31107 | 20634 ft | 444 kts | 75° |
| 2026-05-06 19:24 | 51.44870 | 18.35830 | 20389 ft | 443 kts | 75° |
| 2026-05-06 19:24 | 51.45786 | 18.40543 | 20141 ft | 442 kts | 75° |
| 2026-05-06 19:25 | 51.46697 | 18.45246 | 19891 ft | 440 kts | 75° |
| 2026-05-06 19:25 | 51.47601 | 18.49921 | 19789 ft | 439 kts | 75° |
| 2026-05-06 19:25 | 51.48503 | 18.54604 | 19538 ft | 438 kts | 75° |
| 2026-05-06 19:25 | 51.49398 | 18.59259 | 19117 ft | 433 kts | 75° |
| 2026-05-06 19:26 | 51.50272 | 18.63808 | 18698 ft | 431 kts | 75° |
| 2026-05-06 19:26 | 51.51151 | 18.68402 | 18288 ft | 429 kts | 76° |
| 2026-05-06 19:26 | 51.52025 | 18.72979 | 17841 ft | 428 kts | 76° |
| 2026-05-06 19:26 | 51.52895 | 18.77549 | 17361 ft | 427 kts | 76° |
| 2026-05-06 19:27 | 51.53759 | 18.82094 | 17091 ft | 423 kts | 76° |
| 2026-05-06 19:27 | 51.54612 | 18.86591 | 16841 ft | 420 kts | 76° |
| 2026-05-06 19:27 | 51.55461 | 18.91077 | 16779 ft | 419 kts | 76° |
| 2026-05-06 19:27 | 51.56304 | 18.95544 | 16764 ft | 417 kts | 76° |
| 2026-05-06 19:28 | 51.57145 | 19.00014 | 16750 ft | 418 kts | 76° |
| 2026-05-06 19:28 | 51.57986 | 19.04492 | 16279 ft | 416 kts | 76° |
| 2026-05-06 19:28 | 51.58815 | 19.08918 | 15821 ft | 410 kts | 76° |
| 2026-05-06 19:28 | 51.59632 | 19.13282 | 15380 ft | 406 kts | 76° |
| 2026-05-06 19:29 | 51.60432 | 19.17568 | 14938 ft | 403 kts | 76° |
| 2026-05-06 19:29 | 51.61233 | 19.21880 | 14508 ft | 401 kts | 76° |
| 2026-05-06 19:29 | 51.62029 | 19.26165 | 14069 ft | 398 kts | 76° |
| 2026-05-06 19:29 | 51.62815 | 19.30414 | 13647 ft | 395 kts | 75° |
| 2026-05-06 19:30 | 51.63592 | 19.34628 | 13182 ft | 392 kts | 75° |
| 2026-05-06 19:30 | 51.64366 | 19.38820 | 12713 ft | 389 kts | 75° |
| 2026-05-06 19:30 | 51.65132 | 19.42988 | 12239 ft | 388 kts | 75° |
| 2026-05-06 19:30 | 51.65897 | 19.47157 | 11731 ft | 388 kts | 75° |
| 2026-05-06 19:31 | 51.66658 | 19.51317 | 11231 ft | 387 kts | 75° |
| 2026-05-06 19:31 | 51.67416 | 19.55468 | 10737 ft | 385 kts | 75° |
| 2026-05-06 19:31 | 51.68886 | 19.63528 | 10022 ft | 358 kts | 75° |
| 2026-05-06 19:32 | 51.69570 | 19.67284 | 9818 ft | 340 kts | 75° |
| 2026-05-06 19:32 | 51.70214 | 19.70836 | 9761 ft | 321 kts | 75° |
| 2026-05-06 19:32 | 51.70840 | 19.74304 | 9755 ft | 320 kts | 75° |
| 2026-05-06 19:32 | 51.71456 | 19.77731 | 9757 ft | 316 kts | 75° |
| 2026-05-06 19:33 | 51.72060 | 19.81086 | 9772 ft | 315 kts | 75° |
| 2026-05-06 19:33 | 51.72670 | 19.84478 | 9780 ft | 315 kts | 75° |
| 2026-05-06 19:33 | 51.73193 | 19.87908 | 9754 ft | 314 kts | 89° |
| 2026-05-06 19:33 | 51.72887 | 19.91319 | 9793 ft | 305 kts | 112° |
| 2026-05-06 19:34 | 51.72155 | 19.94525 | 9775 ft | 304 kts | 115° |
| 2026-05-06 19:34 | 51.71364 | 19.97699 | 9783 ft | 305 kts | 116° |
| 2026-05-06 19:34 | 51.70561 | 20.00873 | 9775 ft | 306 kts | 116° |
| 2026-05-06 19:34 | 51.69754 | 20.04047 | 9767 ft | 306 kts | 116° |
| 2026-05-06 19:35 | 51.68948 | 20.07218 | 9767 ft | 306 kts | 116° |
| 2026-05-06 19:35 | 51.68139 | 20.10400 | 9779 ft | 306 kts | 116° |
| 2026-05-06 19:35 | 51.67332 | 20.13572 | 9791 ft | 305 kts | 116° |
| 2026-05-06 19:35 | 51.66528 | 20.16733 | 9787 ft | 305 kts | 116° |
| 2026-05-06 19:36 | 51.65717 | 20.19903 | 9768 ft | 305 kts | 116° |
| 2026-05-06 19:36 | 51.64918 | 20.23025 | 9765 ft | 305 kts | 116° |
| 2026-05-06 19:36 | 51.64101 | 20.26208 | 9779 ft | 303 kts | 116° |
| 2026-05-06 19:36 | 51.63307 | 20.29300 | 9769 ft | 302 kts | 116° |
| 2026-05-06 19:37 | 51.62502 | 20.32419 | 9770 ft | 302 kts | 116° |
| 2026-05-06 19:37 | 51.61696 | 20.35543 | 9776 ft | 302 kts | 116° |
| 2026-05-06 19:37 | 51.60893 | 20.38657 | 9788 ft | 302 kts | 116° |
| 2026-05-06 19:37 | 51.60349 | 20.40772 | 9782 ft | 302 kts | 116° |
| 2026-05-06 19:38 | 51.59281 | 20.44912 | 9774 ft | 303 kts | 116° |
| 2026-05-06 19:38 | 51.58476 | 20.48035 | 9778 ft | 302 kts | 116° |
| 2026-05-06 19:38 | 51.57672 | 20.51152 | 9790 ft | 301 kts | 116° |
| 2026-05-06 19:38 | 51.56869 | 20.54264 | 9784 ft | 301 kts | 116° |
| 2026-05-06 19:39 | 51.56063 | 20.57376 | 9783 ft | 302 kts | 116° |
| 2026-05-06 19:39 | 51.55509 | 20.60634 | 9767 ft | 308 kts | 94° |
| 2026-05-06 19:39 | 51.55658 | 20.64073 | 9802 ft | 309 kts | 86° |
| 2026-05-06 19:39 | 51.55873 | 20.67523 | 9781 ft | 310 kts | 87° |
| 2026-05-06 19:40 | 51.56084 | 20.70989 | 9778 ft | 312 kts | 86° |
| 2026-05-06 19:40 | 51.56299 | 20.74462 | 9784 ft | 313 kts | 86° |
| 2026-05-06 19:40 | 51.56596 | 20.77931 | 9778 ft | 316 kts | 74° |
| 2026-05-06 19:40 | 51.57647 | 20.81032 | 9527 ft | 318 kts | 51° |
| 2026-05-06 19:41 | 51.59063 | 20.83705 | 9063 ft | 319 kts | 47° |
| 2026-05-06 19:41 | 51.60541 | 20.86326 | 8591 ft | 314 kts | 47° |
| 2026-05-06 19:41 | 51.62007 | 20.88900 | 8140 ft | 309 kts | 46° |
| 2026-05-06 19:41 | 51.63453 | 20.91417 | 7684 ft | 304 kts | 46° |
| 2026-05-06 19:42 | 51.64886 | 20.93908 | 7238 ft | 301 kts | 47° |
| 2026-05-06 19:42 | 51.66301 | 20.96350 | 7051 ft | 300 kts | 46° |
| 2026-05-06 19:42 | 51.67760 | 20.98794 | 7028 ft | 303 kts | 40° |
| 2026-05-06 19:42 | 51.69580 | 21.00461 | 6629 ft | 303 kts | 18° |
| 2026-05-06 19:43 | 51.71549 | 21.01556 | 6241 ft | 294 kts | 17° |
| 2026-05-06 19:43 | 51.73447 | 21.02610 | 5803 ft | 282 kts | 17° |
| 2026-05-06 19:43 | 51.75260 | 21.03604 | 5367 ft | 268 kts | 17° |
| 2026-05-06 19:43 | 51.76970 | 21.04544 | 5049 ft | 249 kts | 17° |
| 2026-05-06 19:44 | 51.78556 | 21.05417 | 5011 ft | 238 kts | 18° |
| 2026-05-06 19:44 | 51.79958 | 21.06852 | 4993 ft | 243 kts | 51° |
| 2026-05-06 19:44 | 51.80744 | 21.09264 | 5026 ft | 244 kts | 67° |
| 2026-05-06 19:44 | 51.81430 | 21.11748 | 5019 ft | 244 kts | 67° |
| 2026-05-06 19:45 | 51.82123 | 21.14241 | 5005 ft | 243 kts | 65° |
| 2026-05-06 19:45 | 51.83179 | 21.16343 | 4983 ft | 244 kts | 31° |
| 2026-05-06 19:45 | 51.84779 | 21.17272 | 4606 ft | 246 kts | 9° |
| 2026-05-06 19:45 | 51.86451 | 21.17776 | 4144 ft | 243 kts | 7° |
| 2026-05-06 19:46 | 51.88098 | 21.18226 | 3635 ft | 238 kts | 7° |
| 2026-05-06 19:46 | 51.89715 | 21.18650 | 3175 ft | 232 kts | 7° |
| 2026-05-06 19:46 | 51.91340 | 21.18653 | 3046 ft | 237 kts | 340° |
| 2026-05-06 19:46 | 51.92806 | 21.17559 | 3017 ft | 230 kts | 329° |
| 2026-05-06 19:47 | 51.94209 | 21.16368 | 2990 ft | 223 kts | 328° |
| 2026-05-06 19:47 | 51.95542 | 21.15213 | 2984 ft | 212 kts | 328° |
| 2026-05-06 19:47 | 51.96809 | 21.14101 | 2986 ft | 204 kts | 328° |
| 2026-05-06 19:47 | 51.98069 | 21.12989 | 3004 ft | 210 kts | 328° |
| 2026-05-06 19:48 | 51.99365 | 21.11846 | 3005 ft | 212 kts | 328° |
| 2026-05-06 19:48 | 52.00656 | 21.10711 | 3001 ft | 210 kts | 328° |
| 2026-05-06 19:48 | 52.01935 | 21.09588 | 2999 ft | 208 kts | 328° |
| 2026-05-06 19:48 | 52.03196 | 21.08479 | 2992 ft | 209 kts | 328° |
| 2026-05-06 19:49 | 52.04494 | 21.07335 | 2766 ft | 213 kts | 328° |
| 2026-05-06 19:49 | 52.05798 | 21.06187 | 2494 ft | 212 kts | 328° |
| 2026-05-06 19:49 | 52.07071 | 21.05074 | 2225 ft | 202 kts | 327° |
| 2026-05-06 19:49 | 52.08240 | 21.04047 | 1982 ft | 182 kts | 327° |
| 2026-05-06 19:50 | 52.09307 | 21.03110 | 1715 ft | 166 kts | 327° |
| 2026-05-06 19:50 | 52.10281 | 21.02253 | 1447 ft | 154 kts | 325° |
| 2026-05-06 19:50 | 52.11208 | 21.01437 | 1226 ft | 150 kts | 327° |
| 2026-05-06 19:50 | 52.12117 | 21.00630 | 1080 ft | 149 kts | 327° |
| 2026-05-06 19:51 | 52.13033 | 20.99805 | 932 ft | 153 kts | 327° |
| 2026-05-06 19:51 | 52.14000 | 20.98963 | 677 ft | 164 kts | 330° |
| 2026-05-06 19:51 | 52.15005 | 20.98077 | 436 ft | 162 kts | 328° |
| 2026-05-06 19:51 | 52.15960 | 20.97255 | 338 ft | 141 kts | 331° |
| 2026-05-06 19:52 | 52.16587 | 20.96698 | 338 ft | 67 kts | 333° |
| 2026-05-06 19:52 | 52.16831 | 20.96529 | 336 ft | 32 kts | 349° |
| 2026-05-06 19:52 | 52.17004 | 20.96515 | 337 ft | 13 kts | 3° |
| 2026-05-06 19:52 | 52.17057 | 20.96527 | 337 ft | 1 kts | 24° |
| 2026-05-06 19:53 | 52.17085 | 20.96561 | 336 ft | 12 kts | 42° |
| 2026-05-06 19:53 | 52.17175 | 20.96582 | 336 ft | 14 kts | 340° |
| 2026-05-06 19:53 | 52.17263 | 20.96509 | 336 ft | 14 kts | 332° |
| 2026-05-06 19:53 | 52.17346 | 20.96436 | 338 ft | 13 kts | 331° |
| 2026-05-06 19:54 | 52.17429 | 20.96411 | 336 ft | 13 kts | 33° |
| 2026-05-06 19:54 | 52.17479 | 20.96528 | 336 ft | 12 kts | 53° |
| 2026-05-06 19:54 | 52.17532 | 20.96638 | 338 ft | 12 kts | 59° |
| 2026-05-06 19:54 | 52.17575 | 20.96753 | 337 ft | 12 kts | 58° |
| 2026-05-06 19:55 | 52.17618 | 20.96864 | 338 ft | 12 kts | 50° |
| 2026-05-06 19:55 | 52.17690 | 20.96879 | 334 ft | 11 kts | 329° |
| 2026-05-06 19:55 | 52.17756 | 20.96810 | 335 ft | 11 kts | 327° |
| 2026-05-06 19:55 | 52.17771 | 20.96795 | 334 ft | 2 kts | 327° |
| 2026-05-06 19:56 | 52.17783 | 20.96753 | 333 ft | 6 kts | 270° |
| 2026-05-06 19:56 | 52.17773 | 20.96715 | 338 ft | 2 kts | 237° |
| 2026-05-06 19:56 | 52.17768 | 20.96702 | 334 ft | 0 kts | 236° |